createdAt,value
2018-10-17T00:01:53.700Z,99.90
2018-10-17T00:04:22.067Z,99.90
2018-10-17T00:06:50.416Z,99.90
2018-10-17T00:09:18.784Z,99.90
2018-10-17T00:11:47.146Z,99.90
2018-10-17T00:14:15.519Z,99.90
2018-10-17T00:16:43.892Z,99.90
2018-10-17T00:19:12.317Z,99.90
2018-10-17T00:21:40.632Z,99.90
2018-10-17T00:24:09.008Z,99.90
2018-10-17T00:26:37.348Z,99.90
2018-10-17T00:29:05.778Z,99.90
2018-10-17T00:31:34.064Z,99.90
2018-10-17T00:34:02.425Z,99.90
2018-10-17T00:36:30.767Z,99.90
2018-10-17T00:38:59.148Z,99.90
2018-10-17T00:41:27.464Z,99.90
2018-10-17T00:43:55.824Z,99.90
2018-10-17T00:46:24.147Z,99.90
2018-10-17T00:48:52.537Z,99.90
2018-10-17T00:51:20.828Z,99.90
2018-10-17T00:53:49.172Z,99.90
2018-10-17T00:56:17.500Z,99.90
2018-10-17T00:59:18.595Z,99.90
2018-10-17T01:01:46.955Z,99.90
2018-10-17T01:04:15.341Z,99.90
2018-10-17T01:06:43.740Z,99.90
2018-10-17T01:09:13.268Z,99.90
2018-10-17T01:11:41.926Z,99.90
2018-10-17T01:14:12.042Z,99.90
2018-10-17T01:16:40.456Z,99.90
2018-10-17T01:19:08.916Z,99.90
2018-10-17T01:21:37.715Z,99.90
2018-10-17T01:24:06.412Z,99.90
2018-10-17T01:26:34.789Z,99.90
2018-10-17T01:29:03.242Z,99.90
2018-10-17T01:31:31.551Z,99.90
2018-10-17T01:33:59.951Z,99.90
2018-10-17T01:36:28.300Z,99.90
2018-10-17T01:38:56.683Z,99.90
2018-10-17T01:41:25.073Z,99.90
2018-10-17T01:43:53.445Z,99.90
2018-10-17T01:46:21.768Z,99.90
2018-10-17T01:48:50.154Z,99.90
2018-10-17T01:51:18.484Z,99.90
2018-10-17T01:53:46.875Z,99.90
2018-10-17T01:56:15.195Z,99.90
2018-10-17T01:58:43.559Z,99.90
2018-10-17T02:01:11.922Z,99.90
2018-10-17T02:03:40.276Z,99.90
2018-10-17T02:06:08.747Z,99.90
2018-10-17T02:08:37.123Z,99.90
2018-10-17T02:11:05.557Z,99.90
2018-10-17T02:13:33.904Z,99.90
2018-10-17T02:16:02.279Z,99.90
2018-10-17T02:18:30.623Z,99.90
2018-10-17T02:20:58.987Z,99.90
2018-10-17T02:23:27.312Z,99.90
2018-10-17T02:25:55.685Z,99.90
2018-10-17T02:28:24.024Z,99.90
2018-10-17T02:30:52.438Z,99.90
2018-10-17T02:33:20.796Z,99.90
2018-10-17T02:35:49.135Z,99.90
2018-10-17T02:38:17.517Z,99.90
2018-10-17T02:40:45.861Z,99.90
2018-10-17T02:43:14.233Z,99.90
2018-10-17T02:45:42.580Z,99.90
2018-10-17T02:48:10.951Z,99.90
2018-10-17T02:50:39.352Z,99.90
2018-10-17T02:53:07.802Z,99.90
2018-10-17T02:55:36.092Z,99.90
2018-10-17T02:58:04.516Z,99.90
2018-10-17T03:00:32.845Z,99.90
2018-10-17T03:03:01.237Z,99.90
2018-10-17T03:05:29.597Z,99.90
2018-10-17T03:07:57.960Z,99.90
2018-10-17T03:10:26.293Z,99.90
2018-10-17T03:12:54.676Z,99.90
2018-10-17T03:15:23.012Z,99.90
2018-10-17T03:17:51.393Z,99.90
2018-10-17T03:20:19.748Z,99.90
2018-10-17T03:22:48.113Z,99.90
2018-10-17T03:25:16.529Z,99.90
2018-10-17T03:27:44.872Z,99.90
2018-10-17T03:30:13.220Z,99.90
2018-10-17T03:32:41.608Z,99.90
2018-10-17T03:35:09.976Z,99.90
2018-10-17T03:37:38.327Z,99.90
2018-10-17T03:40:06.700Z,99.90
2018-10-17T03:42:35.068Z,99.90
2018-10-17T03:45:03.425Z,99.90
2018-10-17T03:47:31.785Z,99.90
2018-10-17T03:50:00.243Z,99.90
2018-10-17T03:52:28.521Z,99.90
2018-10-17T03:54:56.864Z,99.90
2018-10-17T03:57:25.300Z,99.90
2018-10-17T03:59:53.661Z,99.90
2018-10-17T04:02:22.060Z,99.90
2018-10-17T04:04:50.404Z,99.90
2018-10-17T04:07:18.885Z,99.90
2018-10-17T04:09:47.168Z,99.90
2018-10-17T04:12:15.515Z,99.90
2018-10-17T04:14:43.942Z,99.90
2018-10-17T04:17:12.331Z,99.90
2018-10-17T04:19:40.752Z,99.90
2018-10-17T04:22:09.155Z,99.90
2018-10-17T04:24:37.574Z,99.90
2018-10-17T04:27:05.984Z,99.90
2018-10-17T04:29:34.610Z,99.90
2018-10-17T04:32:02.977Z,99.90
2018-10-17T04:34:31.360Z,99.90
2018-10-17T04:36:59.751Z,99.90
2018-10-17T04:39:28.121Z,99.90
2018-10-17T04:41:56.442Z,99.90
2018-10-17T04:44:24.816Z,99.90
2018-10-17T04:46:53.185Z,99.90
2018-10-17T04:49:21.599Z,99.90
2018-10-17T04:51:49.941Z,99.90
2018-10-17T04:54:18.301Z,99.90
2018-10-17T04:56:46.647Z,99.90
2018-10-17T04:59:15.122Z,99.90
2018-10-17T05:01:43.368Z,99.90
2018-10-17T05:04:11.732Z,99.90
2018-10-17T05:06:40.151Z,99.90
2018-10-17T05:09:09.536Z,99.90
2018-10-17T05:11:38.183Z,99.90
2018-10-17T05:14:06.780Z,99.90
2018-10-17T05:16:35.533Z,99.90
2018-10-17T05:19:04.025Z,99.90
2018-10-17T05:21:32.349Z,99.90
2018-10-17T05:24:00.731Z,99.90
2018-10-17T05:26:29.125Z,99.90
2018-10-17T05:28:57.503Z,99.90
2018-10-17T05:31:25.953Z,99.90
2018-10-17T05:33:54.337Z,99.90
2018-10-17T05:36:22.685Z,99.90
2018-10-17T05:38:51.029Z,99.90
2018-10-17T05:41:19.425Z,99.90
2018-10-17T05:43:47.776Z,99.90
2018-10-17T05:46:16.176Z,99.90
2018-10-17T05:48:44.552Z,99.90
2018-10-17T05:51:12.956Z,99.90
2018-10-17T05:53:41.320Z,99.90
2018-10-17T05:56:09.693Z,99.90
2018-10-17T05:58:38.036Z,99.90
2018-10-17T06:01:07.126Z,99.90
2018-10-17T06:03:35.392Z,99.90
2018-10-17T06:06:03.793Z,99.90
2018-10-17T06:08:32.155Z,99.90
2018-10-17T06:11:00.598Z,99.90
2018-10-17T06:13:28.901Z,99.90
2018-10-17T06:15:57.296Z,99.90
2018-10-17T06:18:25.640Z,99.90
2018-10-17T06:20:54.025Z,99.90
2018-10-17T06:23:22.389Z,99.90
2018-10-17T06:25:50.777Z,99.90
2018-10-17T06:28:19.229Z,99.90
2018-10-17T06:30:47.588Z,99.90
2018-10-17T06:33:15.904Z,99.90
2018-10-17T06:35:44.291Z,99.90
2018-10-17T06:38:12.640Z,99.90
2018-10-17T06:40:41.008Z,99.90
2018-10-17T06:43:09.462Z,99.90
2018-10-17T06:45:37.756Z,99.90
2018-10-17T06:48:06.345Z,99.90
2018-10-17T06:50:34.734Z,99.90
2018-10-17T06:53:03.146Z,99.90
2018-10-17T06:55:31.540Z,99.90
2018-10-17T06:57:59.880Z,99.90
2018-10-17T07:00:28.265Z,99.90
2018-10-17T07:02:56.607Z,99.90
2018-10-17T07:05:25.098Z,99.90
2018-10-17T07:07:53.492Z,99.90
2018-10-17T07:10:21.877Z,99.90
2018-10-17T07:12:50.228Z,99.90
2018-10-17T07:15:18.666Z,99.90
2018-10-17T07:17:46.984Z,99.90
2018-10-17T07:20:15.345Z,99.90
2018-10-17T07:22:43.726Z,99.90
2018-10-17T07:25:12.171Z,99.90
2018-10-17T07:27:40.482Z,99.90
2018-10-17T07:30:12.480Z,99.90
2018-10-17T07:32:40.864Z,99.90
2018-10-17T07:35:10.027Z,99.90
2018-10-17T07:37:38.413Z,99.90
2018-10-17T07:40:06.835Z,99.90
2018-10-17T07:42:35.312Z,99.90
2018-10-17T07:45:03.759Z,99.90
2018-10-17T07:47:32.131Z,99.90
2018-10-17T07:50:00.460Z,99.90
2018-10-17T07:52:28.829Z,99.90
2018-10-17T07:54:57.166Z,99.90
2018-10-17T07:57:25.568Z,99.90
2018-10-17T07:59:54.061Z,99.90
2018-10-17T08:02:22.329Z,99.90
2018-10-17T08:04:50.796Z,99.90
2018-10-17T08:07:19.296Z,99.90
2018-10-17T08:09:47.636Z,99.90
2018-10-17T08:12:16.090Z,99.90
2018-10-17T08:14:44.376Z,99.90
2018-10-17T08:17:13.056Z,99.90
2018-10-17T08:19:41.403Z,99.90
2018-10-17T08:22:09.780Z,99.90
2018-10-17T08:24:38.126Z,99.90
2018-10-17T08:27:06.553Z,99.90
2018-10-17T08:29:34.897Z,99.90
2018-10-17T08:32:03.331Z,99.90
2018-10-17T08:34:31.660Z,99.90
2018-10-17T08:37:00.180Z,99.90
2018-10-17T08:39:28.405Z,99.90
2018-10-17T08:41:56.797Z,99.90
2018-10-17T08:44:25.163Z,99.90
2018-10-17T08:46:53.561Z,99.90
2018-10-17T08:49:21.917Z,99.90
2018-10-17T08:51:50.325Z,99.90
2018-10-17T08:54:18.748Z,99.90
2018-10-17T08:56:47.143Z,99.90
2018-10-17T08:59:15.488Z,99.90
2018-10-17T09:01:44.344Z,99.90
2018-10-17T09:04:12.777Z,99.90
2018-10-17T09:06:41.129Z,99.90
2018-10-17T09:09:11.004Z,99.90
2018-10-17T09:11:40.021Z,99.90
2018-10-17T09:14:08.605Z,99.90
2018-10-17T09:16:36.964Z,99.90
2018-10-17T09:19:05.621Z,99.90
2018-10-17T09:21:34.306Z,99.90
2018-10-17T09:24:02.443Z,99.90
2018-10-17T09:26:30.743Z,99.90
2018-10-17T09:28:59.137Z,99.90
2018-10-17T09:31:27.603Z,99.90
2018-10-17T09:33:56.032Z,99.90
2018-10-17T09:36:24.740Z,99.90
2018-10-17T09:38:53.360Z,99.90
2018-10-17T09:41:21.752Z,99.90
2018-10-17T09:43:50.169Z,99.90
2018-10-17T09:46:18.586Z,99.90
2018-10-17T09:48:46.960Z,99.90
2018-10-17T09:51:15.304Z,99.90
2018-10-17T09:53:43.721Z,99.90
2018-10-17T09:56:12.704Z,99.90
2018-10-17T09:58:41.095Z,99.90
2018-10-17T10:01:15.940Z,99.90
2018-10-17T10:03:44.471Z,99.90
2018-10-17T10:06:12.922Z,99.90
2018-10-17T10:08:41.269Z,99.80
2018-10-17T10:11:09.740Z,99.40
2018-10-17T10:13:38.077Z,99.00
2018-10-17T10:16:06.468Z,97.80
2018-10-17T10:18:34.856Z,97.00
2018-10-17T10:21:03.206Z,96.40
2018-10-17T10:23:31.664Z,95.10
2018-10-17T10:25:59.974Z,94.80
2018-10-17T10:28:28.488Z,94.90
2018-10-17T10:30:56.760Z,94.20
2018-10-17T10:33:25.164Z,92.20
2018-10-17T10:35:53.518Z,92.60
2018-10-17T10:38:21.912Z,91.60
2018-10-17T10:40:50.256Z,91.50
2018-10-17T10:43:18.733Z,91.30
2018-10-17T10:45:47.132Z,90.70
2018-10-17T10:48:15.670Z,90.80
2018-10-17T10:50:43.953Z,89.80
2018-10-17T10:53:12.336Z,89.50
2018-10-17T10:55:40.672Z,90.00
2018-10-17T10:58:09.959Z,89.70
2018-10-17T11:00:38.288Z,88.70
2018-10-17T11:03:06.709Z,87.30
2018-10-17T11:05:35.220Z,86.40
2018-10-17T11:08:03.919Z,86.90
2018-10-17T11:10:32.327Z,86.80
2018-10-17T11:13:01.066Z,86.60
2018-10-17T11:15:29.445Z,84.40
2018-10-17T11:17:57.800Z,80.90
2018-10-17T11:20:26.180Z,80.40
2018-10-17T11:22:54.587Z,81.20
2018-10-17T11:25:22.929Z,79.50
2018-10-17T11:27:51.276Z,80.00
2018-10-17T11:30:19.651Z,79.20
2018-10-17T11:32:47.998Z,76.70
2018-10-17T11:35:16.445Z,76.30
2018-10-17T11:37:44.740Z,75.60
2018-10-17T11:40:13.239Z,75.70
2018-10-17T11:42:41.529Z,75.90
2018-10-17T11:45:10.074Z,74.10
2018-10-17T11:47:38.376Z,74.30
2018-10-17T11:50:08.099Z,74.20
2018-10-17T11:52:36.696Z,72.20
2018-10-17T11:55:05.625Z,71.50
2018-10-17T11:57:34.178Z,71.20
2018-10-17T12:00:02.670Z,72.80
2018-10-17T12:02:31.024Z,73.70
2018-10-17T12:04:59.609Z,73.00
2018-10-17T12:07:27.834Z,72.50
2018-10-17T12:09:56.216Z,72.80
2018-10-17T12:12:24.646Z,73.00
2018-10-17T12:14:53.045Z,71.80
2018-10-17T12:17:21.373Z,71.30
2018-10-17T12:19:49.799Z,71.20
2018-10-17T12:22:18.115Z,71.20
2018-10-17T12:24:46.492Z,71.10
2018-10-17T12:27:14.985Z,70.30
2018-10-17T12:29:43.284Z,70.30
2018-10-17T12:32:11.634Z,70.50
2018-10-17T12:34:40.091Z,71.40
2018-10-17T12:37:08.541Z,69.70
2018-10-17T12:39:36.997Z,70.10
2018-10-17T12:42:05.551Z,69.30
2018-10-17T12:44:33.974Z,69.00
2018-10-17T12:47:02.368Z,69.30
2018-10-17T12:49:30.765Z,68.30
2018-10-17T12:51:59.185Z,68.00
2018-10-17T12:54:27.498Z,67.60
2018-10-17T12:56:55.903Z,67.80
2018-10-17T12:59:24.252Z,66.80
2018-10-17T13:01:52.630Z,66.30
2018-10-17T13:04:20.987Z,67.20
2018-10-17T13:06:49.377Z,66.60
2018-10-17T13:09:17.733Z,66.50
2018-10-17T13:11:46.137Z,66.50
2018-10-17T13:14:14.491Z,67.30
2018-10-17T13:16:42.889Z,67.10
2018-10-17T13:19:11.301Z,67.40
2018-10-17T13:21:39.669Z,67.10
2018-10-17T13:24:08.033Z,66.60
2018-10-17T13:26:36.405Z,66.00
2018-10-17T13:29:05.409Z,66.30
2018-10-17T13:31:33.749Z,65.50
2018-10-17T13:34:02.117Z,64.70
2018-10-17T13:36:30.592Z,65.10
2018-10-17T13:38:58.946Z,65.00
2018-10-17T13:41:27.372Z,64.00
2018-10-17T13:43:55.738Z,63.00
2018-10-17T13:46:24.117Z,62.90
2018-10-17T13:48:52.529Z,64.00
2018-10-17T13:51:20.864Z,64.00
2018-10-17T13:53:49.208Z,63.10
2018-10-17T13:56:17.693Z,63.80
2018-10-17T13:58:46.044Z,64.10
2018-10-17T14:01:14.511Z,64.30
2018-10-17T14:03:42.793Z,62.00
2018-10-17T14:06:11.208Z,61.70
2018-10-17T14:08:39.568Z,63.30
2018-10-17T14:11:08.288Z,64.00
2018-10-17T14:13:36.688Z,60.90
2018-10-17T14:16:05.688Z,60.20
2018-10-17T14:18:34.032Z,60.00
2018-10-17T14:21:02.517Z,60.50
2018-10-17T14:23:31.347Z,60.60
2018-10-17T14:25:59.687Z,60.40
2018-10-17T14:28:28.047Z,61.10
2018-10-17T14:30:56.605Z,60.20
2018-10-17T14:33:24.997Z,60.00
2018-10-17T14:35:53.352Z,60.80
2018-10-17T14:38:21.820Z,60.20
2018-10-17T14:40:50.428Z,61.40
2018-10-17T14:43:18.687Z,61.90
2018-10-17T14:45:47.052Z,62.50
2018-10-17T14:48:15.482Z,61.90
2018-10-17T14:50:43.845Z,62.00
2018-10-17T14:53:12.305Z,61.30
2018-10-17T14:55:40.624Z,61.40
2018-10-17T14:58:09.020Z,61.20
2018-10-17T15:00:37.397Z,61.20
2018-10-17T15:03:05.855Z,60.80
2018-10-17T15:05:34.203Z,61.10
2018-10-17T15:08:02.684Z,61.60
2018-10-17T15:10:31.139Z,62.10
2018-10-17T15:12:59.513Z,62.60
2018-10-17T15:15:27.873Z,63.00
2018-10-17T15:17:56.349Z,63.20
2018-10-17T15:20:24.637Z,63.30
2018-10-17T15:22:53.015Z,63.70
2018-10-17T15:25:21.394Z,64.00
2018-10-17T15:27:49.843Z,64.30
2018-10-17T15:30:18.357Z,64.70
2018-10-17T15:32:46.640Z,65.20
2018-10-17T15:35:15.008Z,65.90
2018-10-17T15:37:43.421Z,65.90
2018-10-17T15:40:11.814Z,66.50
2018-10-17T15:42:40.385Z,66.80
2018-10-17T15:45:08.794Z,67.50
2018-10-17T15:47:37.204Z,67.80
2018-10-17T15:50:05.668Z,68.00
2018-10-17T15:52:34.069Z,68.40
2018-10-17T15:55:02.425Z,68.60
2018-10-17T15:57:30.833Z,70.30
2018-10-17T15:59:59.211Z,70.20
2018-10-17T16:02:27.655Z,70.90
2018-10-17T16:04:55.987Z,71.30
2018-10-17T16:07:24.396Z,71.90
2018-10-17T16:09:52.748Z,72.60
2018-10-17T16:12:21.136Z,73.20
2018-10-17T16:14:49.489Z,73.80
2018-10-17T16:17:17.918Z,74.30
2018-10-17T16:19:46.244Z,75.00
2018-10-17T16:22:14.603Z,75.50
2018-10-17T16:24:42.993Z,76.40
2018-10-17T16:27:11.352Z,76.80
2018-10-17T16:29:39.787Z,77.30
2018-10-17T16:32:08.209Z,77.70
2018-10-17T16:34:36.625Z,78.40
2018-10-17T16:37:05.416Z,79.00
2018-10-17T16:39:33.812Z,79.60
2018-10-17T16:42:02.229Z,79.90
2018-10-17T16:44:30.581Z,80.00
2018-10-17T16:46:58.948Z,80.20
2018-10-17T16:49:27.406Z,80.10
2018-10-17T16:51:55.776Z,80.60
2018-10-17T16:54:24.193Z,80.20
2018-10-17T16:56:52.554Z,80.30
2018-10-17T16:59:20.952Z,80.50
2018-10-17T17:01:49.312Z,80.90
2018-10-17T17:04:17.742Z,81.20
2018-10-17T17:06:46.063Z,82.70
2018-10-17T17:09:14.558Z,82.50
2018-10-17T17:11:42.846Z,83.50
2018-10-17T17:14:11.221Z,84.90
2018-10-17T17:16:39.585Z,85.50
2018-10-17T17:19:07.977Z,85.80
2018-10-17T17:21:36.327Z,85.90
2018-10-17T17:24:05.023Z,86.40
2018-10-17T17:26:33.629Z,87.20
2018-10-17T17:29:02.068Z,87.80
2018-10-17T17:31:30.430Z,88.50
2018-10-17T17:33:58.822Z,89.10
2018-10-17T17:36:27.223Z,89.30
2018-10-17T17:38:55.583Z,89.60
2018-10-17T17:41:24.309Z,89.90
2018-10-17T17:43:52.708Z,90.00
2018-10-17T17:46:21.062Z,90.20
2018-10-17T17:48:49.463Z,90.40
2018-10-17T17:51:17.827Z,90.70
2018-10-17T17:53:46.208Z,91.00
2018-10-17T17:56:14.552Z,91.30
2018-10-17T17:58:42.972Z,91.40
2018-10-17T18:01:11.345Z,91.50
2018-10-17T18:03:39.738Z,91.70
2018-10-17T18:06:08.095Z,91.80
2018-10-17T18:08:36.500Z,92.00
2018-10-17T18:11:24.624Z,92.20
2018-10-17T18:13:54.197Z,92.40
2018-10-17T18:16:22.596Z,92.60
2018-10-17T18:18:51.033Z,92.90
2018-10-17T18:21:19.408Z,93.20
2018-10-17T18:23:47.829Z,93.70
2018-10-17T18:26:22.965Z,94.00
2018-10-17T18:28:51.368Z,94.30
2018-10-17T18:31:19.913Z,94.60
2018-10-17T18:33:48.307Z,94.80
2018-10-17T18:36:16.673Z,95.10
2018-10-17T18:38:45.072Z,95.30
2018-10-17T18:41:13.541Z,95.40
2018-10-17T18:43:41.885Z,95.60
2018-10-17T18:46:10.277Z,95.90
2018-10-17T18:48:38.637Z,96.10
2018-10-17T18:51:07.479Z,96.30
2018-10-17T18:53:35.824Z,96.60
2018-10-17T18:56:04.270Z,97.00
2018-10-17T18:58:32.612Z,97.40
2018-10-17T19:01:01.000Z,97.50
2018-10-17T19:03:29.345Z,97.90
2018-10-17T19:05:57.728Z,98.10
2018-10-17T19:08:26.073Z,98.30
2018-10-17T19:10:54.440Z,98.50
2018-10-17T19:13:22.776Z,98.70
2018-10-17T19:15:51.184Z,99.70
2018-10-17T19:18:20.475Z,99.90
2018-10-17T19:20:48.875Z,99.90
2018-10-17T19:23:17.292Z,99.90
2018-10-17T19:25:45.697Z,99.90
2018-10-17T19:28:14.045Z,99.90
2018-10-17T19:30:42.514Z,99.90
2018-10-17T19:33:10.954Z,99.90
2018-10-17T19:35:39.512Z,99.90
2018-10-17T19:38:14.537Z,99.90
2018-10-17T19:40:42.937Z,99.90
2018-10-17T19:43:11.292Z,99.90
2018-10-17T19:45:39.688Z,99.90
2018-10-17T19:48:08.054Z,99.90
2018-10-17T19:50:36.448Z,99.90
2018-10-17T19:53:05.049Z,99.90
2018-10-17T19:55:33.476Z,99.90
2018-10-17T19:58:02.004Z,99.90
2018-10-17T20:00:30.388Z,99.90
2018-10-17T20:02:58.765Z,99.90
2018-10-17T20:05:27.151Z,99.90
2018-10-17T20:07:55.530Z,99.90
2018-10-17T20:10:23.918Z,99.90
2018-10-17T20:12:52.606Z,99.90
2018-10-17T20:15:21.002Z,99.90
2018-10-17T20:17:49.364Z,99.90
2018-10-17T20:20:17.707Z,99.90
2018-10-17T20:22:46.088Z,99.90
2018-10-17T20:25:14.578Z,99.90
2018-10-17T20:27:42.955Z,99.90
2018-10-17T20:30:11.384Z,99.90
2018-10-17T20:32:40.056Z,99.90
2018-10-17T20:35:08.822Z,99.90
2018-10-17T20:37:37.228Z,99.90
2018-10-17T20:40:05.627Z,99.90
2018-10-17T20:42:33.996Z,99.90
2018-10-17T20:45:02.328Z,99.90
2018-10-17T20:47:30.715Z,99.90
2018-10-17T20:49:59.085Z,99.90
2018-10-17T20:52:27.532Z,99.90
2018-10-17T20:54:55.863Z,99.90
2018-10-17T20:57:24.253Z,99.90
2018-10-17T20:59:52.588Z,99.90
2018-10-17T21:02:21.082Z,99.90
2018-10-17T21:04:49.416Z,99.90
2018-10-17T21:07:17.787Z,99.90
2018-10-17T21:09:46.232Z,99.90
2018-10-17T21:12:14.690Z,99.90
2018-10-17T21:14:43.059Z,99.90
2018-10-17T21:17:11.507Z,99.90
2018-10-17T21:19:39.883Z,99.90
2018-10-17T21:22:12.461Z,99.90
2018-10-17T21:24:40.872Z,99.90
2018-10-17T21:27:09.216Z,99.90
2018-10-17T21:29:37.692Z,99.90
2018-10-17T21:32:06.221Z,99.90
2018-10-17T21:34:34.556Z,99.90
2018-10-17T21:37:02.968Z,99.90
2018-10-17T21:39:31.304Z,99.90
2018-10-17T21:41:59.676Z,99.90
2018-10-17T21:44:28.023Z,99.90
2018-10-17T21:46:56.436Z,99.90
2018-10-17T21:49:24.770Z,99.90
2018-10-17T21:51:53.139Z,99.90
2018-10-17T21:54:21.524Z,99.90
2018-10-17T21:56:49.896Z,99.90
2018-10-17T21:59:18.272Z,99.90
2018-10-17T22:01:46.733Z,99.90
2018-10-17T22:04:15.065Z,99.90
2018-10-17T22:06:43.440Z,99.90
2018-10-17T22:09:11.984Z,99.90
2018-10-17T22:11:40.354Z,99.90
2018-10-17T22:14:09.107Z,99.90
2018-10-17T22:17:09.039Z,99.90
2018-10-17T22:19:38.352Z,99.90
2018-10-17T22:22:07.201Z,99.90
2018-10-17T22:24:35.577Z,99.90
2018-10-17T22:27:03.915Z,99.90
2018-10-17T22:29:32.309Z,99.90
2018-10-17T22:32:00.658Z,99.90
2018-10-17T22:34:29.000Z,99.90
2018-10-17T22:36:57.548Z,99.90
2018-10-17T22:39:25.908Z,99.90
2018-10-17T22:41:54.275Z,99.90
2018-10-17T22:44:22.631Z,99.90
2018-10-17T22:46:51.042Z,99.90
2018-10-17T22:49:19.380Z,99.90
2018-10-17T22:51:47.708Z,99.90
2018-10-17T22:54:16.089Z,99.90
2018-10-17T22:56:44.508Z,99.90
2018-10-17T22:59:12.963Z,99.90
2018-10-17T23:01:41.361Z,99.90
2018-10-17T23:04:09.932Z,99.90
2018-10-17T23:06:38.488Z,99.90
2018-10-17T23:09:10.033Z,99.90
2018-10-17T23:11:38.544Z,99.90
2018-10-17T23:14:07.233Z,99.90
2018-10-17T23:16:35.552Z,99.90
2018-10-17T23:19:04.111Z,99.90
2018-10-17T23:21:32.480Z,99.90
2018-10-17T23:24:01.092Z,99.90
2018-10-17T23:26:29.458Z,99.90
2018-10-17T23:28:57.843Z,99.90
2018-10-17T23:31:26.192Z,99.90
2018-10-17T23:33:54.687Z,99.90
2018-10-17T23:36:23.471Z,99.90
2018-10-17T23:38:52.201Z,99.90
2018-10-17T23:41:21.069Z,99.90
2018-10-17T23:43:49.456Z,99.90
2018-10-17T23:46:17.797Z,99.90
2018-10-17T23:48:46.168Z,99.90
2018-10-17T23:51:14.549Z,99.90
2018-10-17T23:53:42.920Z,99.90
2018-10-17T23:56:11.351Z,99.90
2018-10-17T23:58:39.648Z,99.90
